Time,TemperatureF,DewpointF,PressureIn,WindDirection,WindDirectionDegrees,WindSpeedMPH,WindSpeedGustMPH,Humidity,HourlyPrecipIn,Conditions,Clouds,dailyrainin,SoftwareType,DateUTC
2013-07-04 00:06:00,73.4,71.6,30.01,NW,315,1.1,-999.0,94,-99.99,,,0.00,Acu-Link.com,2013-07-04 04:06:00,
2013-07-04 00:21:00,73.4,71.9,30.01,ESE,112,2.0,-999.0,95,-99.99,,,0.00,Acu-Link.com,2013-07-04 04:21:00,
2013-07-04 00:37:00,73.4,71.9,30.01,SSW,202,2.0,-999.0,95,-99.99,,,0.00,Acu-Link.com,2013-07-04 04:37:00,
2013-07-04 00:52:00,73.4,71.9,30.01,NE,45,0.0,-999.0,95,-99.99,,,0.00,Acu-Link.com,2013-07-04 04:52:00,
2013-07-04 01:07:00,73.4,71.9,30.01,ESE,112,2.0,-999.0,95,-99.99,,,0.00,Acu-Link.com,2013-07-04 05:07:00,
2013-07-04 01:22:00,73.4,71.9,30.01,ESE,112,1.6,-999.0,95,-99.99,,,0.00,Acu-Link.com,2013-07-04 05:22:00,
2013-07-04 01:38:00,73.4,71.9,30.01,NNW,337,2.0,-999.0,95,-99.99,,,0.00,Acu-Link.com,2013-07-04 05:38:00,
2013-07-04 01:53:00,73.4,71.9,30.01,ESE,112,2.0,-999.0,95,-99.99,,,0.00,Acu-Link.com,2013-07-04 05:53:00,
2013-07-04 02:08:00,73.4,71.9,30.00,ENE,67,1.1,-999.0,95,-99.99,,,0.01,Acu-Link.com,2013-07-04 06:08:00,
2013-07-04 02:23:00,73.4,71.9,30.00,WNW,292,2.0,-999.0,95,-99.99,,,0.01,Acu-Link.com,2013-07-04 06:23:00,
2013-07-04 02:38:00,73.4,71.9,30.00,West,270,2.0,-999.0,95,-99.99,,,0.01,Acu-Link.com,2013-07-04 06:38:00,
2013-07-04 02:53:00,73.4,71.9,29.99,NNE,22,0.0,-999.0,95,-99.99,,,0.01,Acu-Link.com,2013-07-04 06:53:00,
2013-07-04 03:09:00,73.4,71.9,29.99,NW,315,1.6,-999.0,95,-99.99,,,0.01,Acu-Link.com,2013-07-04 07:09:00,
2013-07-04 03:24:00,73.4,71.9,29.99,SW,225,2.0,-999.0,95,-99.99,,,0.04,Acu-Link.com,2013-07-04 07:24:00,
2013-07-04 03:39:00,73.4,71.9,29.99,East,90,1.1,-999.0,95,-99.99,,,0.04,Acu-Link.com,2013-07-04 07:39:00,
2013-07-04 03:54:00,73.4,71.9,29.99,NW,315,0.0,-999.0,95,-99.99,,,0.08,Acu-Link.com,2013-07-04 07:54:00,
2013-07-04 04:11:00,73.4,71.9,29.99,WNW,292,0.0,-999.0,95,-99.99,,,0.08,Acu-Link.com,2013-07-04 08:11:00,
2013-07-04 04:26:00,73.4,71.9,29.99,East,90,2.0,-999.0,95,-99.99,,,0.08,Acu-Link.com,2013-07-04 08:26:00,
2013-07-04 04:41:00,73.4,71.9,29.99,NE,45,1.6,-999.0,95,-99.99,,,0.08,Acu-Link.com,2013-07-04 08:41:00,
2013-07-04 04:56:00,73.4,71.9,29.99,ESE,112,2.0,-999.0,95,-99.99,,,0.08,Acu-Link.com,2013-07-04 08:56:00,
2013-07-04 05:11:00,73.4,71.9,29.99,North,0,2.7,-999.0,95,-99.99,,,0.08,Acu-Link.com,2013-07-04 09:11:00,
2013-07-04 05:26:00,73.4,71.9,29.99,WNW,292,1.1,-999.0,95,-99.99,,,0.08,Acu-Link.com,2013-07-04 09:26:00,
2013-07-04 05:42:00,71.6,70.4,30.00,West,270,0.0,-999.0,96,-99.99,,,0.08,Acu-Link.com,2013-07-04 09:42:00,
2013-07-04 05:57:00,71.6,70.4,30.00,ENE,67,0.0,-999.0,96,-99.99,,,0.08,Acu-Link.com,2013-07-04 09:57:00,
2013-07-04 06:12:00,71.6,70.4,30.00,NNE,22,0.0,-999.0,96,-99.99,,,0.08,Acu-Link.com,2013-07-04 10:12:00,
2013-07-04 06:27:00,71.6,70.4,30.01,West,270,0.0,-999.0,96,-99.99,,,0.08,Acu-Link.com,2013-07-04 10:27:00,
2013-07-04 06:43:00,73.4,72.2,30.01,North,0,0.0,-999.0,96,-99.99,,,0.08,Acu-Link.com,2013-07-04 10:43:00,
2013-07-04 06:58:00,73.4,72.2,30.02,NE,45,0.0,-999.0,96,-99.99,,,0.08,Acu-Link.com,2013-07-04 10:58:00,
2013-07-04 07:13:00,71.6,70.4,30.02,NE,45,2.7,-999.0,96,-99.99,,,0.17,Acu-Link.com,2013-07-04 11:13:00,
2013-07-04 07:28:00,71.6,70.4,30.02,NNW,337,2.7,-999.0,96,-99.99,,,0.77,Acu-Link.com,2013-07-04 11:28:00,
2013-07-04 07:44:00,73.4,72.2,30.02,NE,45,0.0,-999.0,96,-99.99,,,0.77,Acu-Link.com,2013-07-04 11:44:00,
2013-07-04 07:59:00,73.4,72.2,30.03,NNW,337,2.0,-999.0,96,-99.99,,,0.77,Acu-Link.com,2013-07-04 11:59:00,
2013-07-04 08:14:00,71.6,70.1,30.04,NNW,337,0.0,-999.0,95,-99.99,,,0.77,Acu-Link.com,2013-07-04 12:14:00,
2013-07-04 08:29:00,71.6,70.1,30.04,NNW,337,0.0,-999.0,95,-99.99,,,0.86,Acu-Link.com,2013-07-04 12:29:00,
2013-07-04 08:45:00,71.6,70.1,30.04,NNE,22,1.1,-999.0,95,-99.99,,,0.87,Acu-Link.com,2013-07-04 12:45:00,
2013-07-04 09:00:00,71.6,70.1,30.04,NNE,22,0.0,-999.0,95,-99.99,,,0.91,Acu-Link.com,2013-07-04 13:00:00,
2013-07-04 09:15:00,71.6,70.1,30.04,NNE,22,1.6,-999.0,95,-99.99,,,0.93,Acu-Link.com,2013-07-04 13:15:00,
2013-07-04 09:30:00,73.4,71.9,30.04,NNE,22,1.6,-999.0,95,-99.99,,,0.95,Acu-Link.com,2013-07-04 13:30:00,
2013-07-04 09:45:00,75.2,73.0,30.04,NNE,22,2.0,-999.0,93,-99.99,,,0.95,Acu-Link.com,2013-07-04 13:45:00,
2013-07-04 10:00:00,78.8,75.3,30.03,NNE,22,1.6,-999.0,89,-99.99,,,0.95,Acu-Link.com,2013-07-04 14:00:00,
2013-07-04 10:16:00,80.6,74.2,30.03,WNW,292,2.0,-999.0,81,-99.99,,,0.95,Acu-Link.com,2013-07-04 14:16:00,
2013-07-04 10:31:00,80.6,74.2,30.03,NNW,337,2.0,-999.0,81,-99.99,,,0.95,Acu-Link.com,2013-07-04 14:31:00,
2013-07-04 10:46:00,84.2,75.8,30.03,SSW,202,3.1,-999.0,76,-99.99,,,0.95,Acu-Link.com,2013-07-04 14:46:00,
2013-07-04 11:01:00,87.8,77.2,30.02,ESE,112,2.0,-999.0,71,-99.99,,,0.95,Acu-Link.com,2013-07-04 15:01:00,
2013-07-04 11:16:00,89.6,76.7,30.02,South,180,3.1,-999.0,66,-99.99,,,0.95,Acu-Link.com,2013-07-04 15:16:00,
2013-07-04 11:31:00,89.6,75.8,30.02,NNE,22,6.7,-999.0,64,-99.99,,,0.95,Acu-Link.com,2013-07-04 15:31:00,
2013-07-04 11:46:00,89.6,74.8,30.02,SSW,202,1.1,-999.0,62,-99.99,,,0.95,Acu-Link.com,2013-07-04 15:46:00,
2013-07-04 12:02:00,91.4,76.5,30.02,West,270,2.0,-999.0,62,-99.99,,,0.95,Acu-Link.com,2013-07-04 16:02:00,
2013-07-04 12:17:00,93.2,75.7,30.01,SE,135,2.0,-999.0,57,-99.99,,,0.95,Acu-Link.com,2013-07-04 16:17:00,
2013-07-04 12:32:00,93.2,75.1,30.01,SW,225,4.0,-999.0,56,-99.99,,,0.95,Acu-Link.com,2013-07-04 16:32:00,
2013-07-04 12:47:00,91.4,74.0,30.01,West,270,5.6,-999.0,57,-99.99,,,0.95,Acu-Link.com,2013-07-04 16:47:00,
2013-07-04 13:02:00,93.2,75.7,30.00,NE,45,1.6,-999.0,57,-99.99,,,0.95,Acu-Link.com,2013-07-04 17:02:00,
2013-07-04 13:18:00,95.0,74.6,30.00,WNW,292,3.6,-999.0,52,-99.99,,,0.95,Acu-Link.com,2013-07-04 17:18:00,
2013-07-04 13:33:00,93.2,73.5,29.99,NW,315,7.8,-999.0,53,-99.99,,,0.95,Acu-Link.com,2013-07-04 17:33:00,
2013-07-04 13:48:00,91.4,72.9,29.98,East,90,3.1,-999.0,55,-99.99,,,0.95,Acu-Link.com,2013-07-04 17:48:00,
2013-07-04 14:03:00,91.4,73.5,29.98,SSW,202,3.1,-999.0,56,-99.99,,,0.95,Acu-Link.com,2013-07-04 18:03:00,
2013-07-04 14:19:00,95.0,72.2,29.98,SSW,202,1.6,-999.0,48,-99.99,,,0.95,Acu-Link.com,2013-07-04 18:19:00,
2013-07-04 14:34:00,96.8,73.8,29.97,SSW,202,1.6,-999.0,48,-99.99,,,0.95,Acu-Link.com,2013-07-04 18:34:00,
2013-07-04 14:49:00,96.8,71.9,29.97,ESE,112,2.7,-999.0,45,-99.99,,,0.95,Acu-Link.com,2013-07-04 18:49:00,
2013-07-04 15:04:00,96.8,73.8,29.96,SSW,202,3.6,-999.0,48,-99.99,,,0.95,Acu-Link.com,2013-07-04 19:04:00,
2013-07-04 15:19:00,95.0,72.8,29.96,SE,135,3.6,-999.0,49,-99.99,,,0.95,Acu-Link.com,2013-07-04 19:19:00,
2013-07-04 15:35:00,95.0,71.6,29.96,WNW,292,2.7,-999.0,47,-99.99,,,0.95,Acu-Link.com,2013-07-04 19:35:00,
2013-07-04 15:50:00,96.8,73.2,29.95,South,180,2.0,-999.0,47,-99.99,,,0.95,Acu-Link.com,2013-07-04 19:50:00,
2013-07-04 16:05:00,98.6,72.9,29.94,NE,45,2.0,-999.0,44,-99.99,,,0.95,Acu-Link.com,2013-07-04 20:05:00,
2013-07-04 16:20:00,91.4,72.4,29.94,ESE,112,2.0,-999.0,54,-99.99,,,0.95,Acu-Link.com,2013-07-04 20:20:00,
2013-07-04 16:36:00,91.4,70.7,29.94,SSW,202,4.0,-999.0,51,-99.99,,,0.95,Acu-Link.com,2013-07-04 20:36:00,
2013-07-04 16:51:00,91.4,71.8,29.95,SSW,202,0.0,-999.0,53,-99.99,,,0.95,Acu-Link.com,2013-07-04 20:51:00,
2013-07-04 17:06:00,87.8,71.7,29.95,SSW,202,1.6,-999.0,59,-99.99,,,0.95,Acu-Link.com,2013-07-04 21:06:00,
2013-07-04 17:22:00,82.4,72.4,29.96,SSE,157,8.7,-999.0,72,-99.99,,,0.95,Acu-Link.com,2013-07-04 21:22:00,
2013-07-04 17:37:00,73.4,67.9,29.98,West,270,2.0,-999.0,83,-99.99,,,1.56,Acu-Link.com,2013-07-04 21:37:00,
2013-07-04 17:52:00,73.4,68.6,29.96,North,0,0.0,-999.0,85,-99.99,,,1.57,Acu-Link.com,2013-07-04 21:52:00,
2013-07-04 18:07:00,73.4,69.6,29.96,NNW,337,0.0,-999.0,88,-99.99,,,1.57,Acu-Link.com,2013-07-04 22:07:00,
2013-07-04 18:23:00,77.0,73.2,29.96,NW,315,1.6,-999.0,88,-99.99,,,1.57,Acu-Link.com,2013-07-04 22:23:00,
2013-07-04 18:38:00,77.0,73.2,29.96,NW,315,0.0,-999.0,88,-99.99,,,1.57,Acu-Link.com,2013-07-04 22:38:00,
2013-07-04 18:53:00,77.0,73.2,29.97,NW,315,0.0,-999.0,88,-99.99,,,1.57,Acu-Link.com,2013-07-04 22:53:00,
2013-07-04 19:08:00,77.0,73.5,29.97,NNE,22,0.0,-999.0,89,-99.99,,,1.57,Acu-Link.com,2013-07-04 23:08:00,
2013-07-04 19:23:00,77.0,73.5,29.97,NNE,22,0.0,-999.0,89,-99.99,,,1.57,Acu-Link.com,2013-07-04 23:23:00,
2013-07-04 19:39:00,77.0,73.8,29.98,NNE,22,0.0,-999.0,90,-99.99,,,1.57,Acu-Link.com,2013-07-04 23:39:00,
2013-07-04 19:54:00,77.0,73.8,29.98,NNE,22,0.0,-999.0,90,-99.99,,,1.57,Acu-Link.com,2013-07-04 23:54:00,
2013-07-04 20:09:00,75.2,72.1,29.99,NNE,22,0.0,-999.0,90,-99.99,,,1.57,Acu-Link.com,2013-07-05 00:09:00,
2013-07-04 20:24:00,75.2,72.1,29.98,NE,45,0.0,-999.0,90,-99.99,,,1.57,Acu-Link.com,2013-07-05 00:24:00,
2013-07-04 20:39:00,73.4,70.6,29.98,North,0,0.0,-999.0,91,-99.99,,,1.57,Acu-Link.com,2013-07-05 00:39:00,
2013-07-04 20:54:00,73.4,70.9,29.98,NNE,22,0.0,-999.0,92,-99.99,,,1.57,Acu-Link.com,2013-07-05 00:54:00,
2013-07-04 21:10:00,73.4,71.2,29.98,NNE,22,0.0,-999.0,93,-99.99,,,1.57,Acu-Link.com,2013-07-05 01:10:00,
2013-07-04 21:25:00,73.4,71.2,29.98,NNE,22,0.0,-999.0,93,-99.99,,,1.57,Acu-Link.com,2013-07-05 01:25:00,
2013-07-04 21:40:00,73.4,71.6,29.98,SW,225,3.1,-999.0,94,-99.99,,,1.57,Acu-Link.com,2013-07-05 01:40:00,
2013-07-04 21:55:00,71.6,69.1,30.00,SSW,202,0.0,-999.0,92,-99.99,,,1.74,Acu-Link.com,2013-07-05 01:55:00,
2013-07-04 22:10:00,71.6,69.8,30.02,South,180,2.7,-999.0,94,-99.99,,,1.79,Acu-Link.com,2013-07-05 02:10:00,
2013-07-04 22:25:00,69.8,68.6,30.02,SSE,157,8.7,-999.0,96,-99.99,,,2.14,Acu-Link.com,2013-07-05 02:25:00,
2013-07-04 22:40:00,69.8,68.3,30.01,West,270,0.0,-999.0,95,-99.99,,,2.69,Acu-Link.com,2013-07-05 02:40:00,
2013-07-04 22:56:00,69.8,68.3,30.02,North,0,0.0,-999.0,95,-99.99,,,2.69,Acu-Link.com,2013-07-05 02:56:00,
2013-07-04 23:11:00,69.8,68.3,30.02,NNE,22,0.0,-999.0,95,-99.99,,,2.69,Acu-Link.com,2013-07-05 03:11:00,
2013-07-04 23:26:00,69.8,68.3,30.02,North,0,0.0,-999.0,95,-99.99,,,2.69,Acu-Link.com,2013-07-05 03:26:00,
2013-07-04 23:41:00,71.6,70.4,30.02,NNE,22,0.0,-999.0,96,-99.99,,,2.69,Acu-Link.com,2013-07-05 03:41:00,
2013-07-04 23:56:00,71.6,70.7,30.02,South,180,0.0,-999.0,97,-99.99,,,2.69,Acu-Link.com,2013-07-05 03:56:00,